Travis Air Force Base
KSUU : now visible

Airfield :











YOU CAN JOIN US ON...

 
LOGIN :

Register | Disclaimer

   EN    FR    IT 

 









Legend :    VFR   Marginal VFR   IFR   Intensive IFR   Very Intensive IFR
Visi :
Ceiling :
>= 8 km
>= 3000ft
5 to 8 km
1000 to 3000 ft
1500m to 5 km
500 to 1000 ft
800 to 1500m
200 to 500 ft
< 800m
< 200 ft
Symbols :   Thunderstorms  Fog  Heavy snow  Heavy precipitations  Wind > 20 kt






- Airport Elevation : 62 ft


KSUU - Travis Air Force Base

CURRENT METAR :
  • 301055Z AUTO 01017G27KT 10SM CLR 05/M12 A2998 RMK AO2 PK WND 34031/19 SLP159 T00461119 $

EXPIRED METARs :
  • 300955Z AUTO 01016G23KT 10SM CLR 05/M12 A2997 RMK AO2 PK WND 01029/01 SLP156 T00491117 $
  • 300855Z AUTO 02023G28KT 10SM CLR 05/M11 A2996 RMK AO2 PK WND 34032/14 SLP153 T00521110 51016 $

TAF TAF KSUU
Valid from the 30 at 11:00 until the 31 at 17:00 UTC


301055Z 3011/3117 36025G35KT 9999 SKC 510003 QNH2997INS
BECMG 3021/3022 35015G25KT 9999 SKC QNH3000INS TX11/3022Z TN02/3013Z
KZOA FIR / North America



MET'MAP, your aeronautical weather chart ! - Copyright ORBIFLY December 2007 - Disclaimer

ORBIFLY MET'MAP TEAM :

Programming & Development : Alexandra Zaïnal
Original concept : Baudouin d'Aumeries
Technical & hardware support : Manuel Goepfert
Assistance : Marc-Olivier Méhu




SOURCES & CREDITS :

   NOAA       Earth
Advisory